Time;durP1;ratioP1;P1;durP2;ratioP2;P2;SDS_P1;SDS_P2;PMS_P1;PMS_P2;Temp;Humidity;BMP_temperature;BMP_pressure;BME280_temperature;BME280_humidity;BME280_pressure;Samples;Min_cycle;Max_cycle;Signal;HPM_P1;HPM_P2
2022/01/04 00:01:35;;;;;;;5.73;3.00;;;9.10;99.90;;;;;;4967996;28;20224;-72
2022/01/04 00:04:02;;;;;;;3.77;2.00;;;9.00;99.90;;;;;;4994031;28;20548;-72
2022/01/04 00:06:29;;;;;;;2.87;1.80;;;8.90;99.90;;;;;;4988861;28;20689;-72
2022/01/04 00:09:00;;;;;;;3.23;1.67;;;8.90;99.90;;;;;;4991494;28;20200;-71
2022/01/04 00:11:43;;;;;;;3.73;1.60;;;8.90;99.90;;;;;;4990328;28;20224;-72
2022/01/04 00:14:12;;;;;;;3.40;2.23;;;8.90;99.90;;;;;;4984888;28;20659;-72
2022/01/04 00:16:40;;;;;;;3.90;2.40;;;8.90;99.90;;;;;;4974713;28;20215;-72
2022/01/04 00:19:07;;;;;;;4.30;2.40;;;8.90;99.90;;;;;;4985153;28;20208;-72
2022/01/04 00:21:35;;;;;;;5.87;2.73;;;8.90;99.90;;;;;;4990276;28;20224;-72
2022/01/04 00:24:03;;;;;;;3.53;1.87;;;8.90;99.90;;;;;;4985180;28;20197;-69
2022/01/04 00:26:31;;;;;;;4.33;1.80;;;8.90;99.90;;;;;;4968901;28;20702;-72
2022/01/04 00:28:58;;;;;;;4.57;1.80;;;8.80;99.90;;;;;;4983746;28;20213;-71
2022/01/04 00:31:27;;;;;;;1.30;1.20;;;8.70;99.90;;;;;;4983244;28;20213;-72
2022/01/04 00:33:54;;;;;;;3.43;1.63;;;8.70;99.90;;;;;;4980441;28;20244;-72
2022/01/04 00:36:21;;;;;;;5.13;2.23;;;8.70;99.90;;;;;;4977981;28;20193;-72
2022/01/04 00:38:49;;;;;;;2.60;1.63;;;8.80;99.90;;;;;;4988042;28;20617;-72
2022/01/04 00:41:22;;;;;;;2.20;1.60;;;8.80;99.90;;;;;;4976444;28;20231;-72
2022/01/04 00:43:49;;;;;;;2.67;1.57;;;8.80;99.90;;;;;;4985482;28;20196;-71
2022/01/04 00:46:17;;;;;;;4.00;1.27;;;8.80;99.90;;;;;;4987684;28;20200;-72
2022/01/04 00:51:31;;;;;;;2.77;1.40;;;8.70;99.90;;;;;;4985119;28;20700;-72
2022/01/04 00:53:59;;;;;;;2.47;1.40;;;8.70;99.90;;;;;;4990289;28;20686;-72
2022/01/04 00:56:27;;;;;;;3.87;2.03;;;8.70;99.90;;;;;;4985303;28;20208;-72
2022/01/04 00:58:55;;;;;;;6.67;2.10;;;8.60;99.90;;;;;;4983607;28;20208;-72
2022/01/04 01:01:22;;;;;;;4.33;1.90;;;8.60;99.90;;;;;;4967758;28;20243;-72
2022/01/04 01:04:27;;;;;;;2.90;2.50;;;8.60;99.90;;;;;;4989948;28;20188;-72
2022/01/04 01:06:54;;;;;;;3.57;2.20;;;8.60;99.90;;;;;;4993502;28;20199;-72
2022/01/04 01:09:24;;;;;;;4.60;2.23;;;8.60;99.90;;;;;;4982176;28;20217;-72
2022/01/04 01:11:52;;;;;;;4.00;2.40;;;8.60;99.90;;;;;;4990762;28;20204;-72
2022/01/04 01:14:19;;;;;;;3.80;2.13;;;8.60;99.90;;;;;;4987748;28;20239;-68
2022/01/04 01:16:46;;;;;;;4.13;2.73;;;8.60;99.90;;;;;;4991966;28;20577;-71
2022/01/04 01:19:14;;;;;;;5.63;2.60;;;8.60;99.90;;;;;;4974122;28;20207;-71
2022/01/04 01:21:42;;;;;;;4.17;2.90;;;8.50;99.90;;;;;;4991061;28;20197;-72
2022/01/04 01:24:10;;;;;;;5.80;3.13;;;8.50;99.90;;;;;;4986667;28;20195;-72
2022/01/04 01:26:37;;;;;;;3.27;2.63;;;8.50;99.90;;;;;;4980044;28;20208;-73
2022/01/04 01:29:04;;;;;;;6.00;2.83;;;8.40;99.90;;;;;;4980014;28;20585;-72
2022/01/04 01:31:32;;;;;;;6.73;3.60;;;8.50;99.90;;;;;;4971421;28;20221;-73
2022/01/04 01:33:59;;;;;;;4.70;3.03;;;8.50;99.90;;;;;;4987725;28;20219;-72
2022/01/04 01:36:27;;;;;;;4.63;3.43;;;8.50;99.90;;;;;;4978571;28;20216;-72
2022/01/04 01:38:56;;;;;;;6.33;3.87;;;8.50;99.90;;;;;;4988227;28;20204;-73
2022/01/04 01:41:23;;;;;;;5.70;3.60;;;8.50;99.90;;;;;;4992250;28;20216;-72
2022/01/04 01:43:50;;;;;;;5.60;3.90;;;8.40;99.90;;;;;;4966105;28;20208;-72
2022/01/04 01:46:18;;;;;;;5.63;4.20;;;8.40;99.90;;;;;;4973347;28;20203;-72
2022/01/04 01:48:45;;;;;;;4.77;3.93;;;8.40;99.90;;;;;;4981921;28;20242;-72
2022/01/04 01:51:16;;;;;;;4.47;3.50;;;8.40;99.90;;;;;;4975472;28;20557;-72
2022/01/04 01:53:43;;;;;;;4.63;3.50;;;8.40;99.90;;;;;;4994126;28;20203;-72
2022/01/04 01:56:12;;;;;;;4.67;3.70;;;8.40;99.90;;;;;;4978443;28;20216;-71
2022/01/04 01:58:39;;;;;;;5.13;4.13;;;8.40;99.90;;;;;;4970969;28;20212;-71
2022/01/04 02:01:08;;;;;;;4.27;3.73;;;8.30;99.90;;;;;;4985850;28;20224;-72
2022/01/04 02:03:35;;;;;;;4.80;3.87;;;8.40;99.90;;;;;;4984812;28;20207;-72
2022/01/04 02:06:03;;;;;;;5.43;4.10;;;8.40;99.90;;;;;;4986357;28;20562;-72
2022/01/04 02:08:31;;;;;;;5.17;3.70;;;8.30;99.90;;;;;;4983429;28;20215;-72
2022/01/04 02:10:59;;;;;;;4.67;4.00;;;8.40;99.90;;;;;;4973765;28;20729;-72
2022/01/04 02:13:28;;;;;;;4.37;3.70;;;8.30;99.90;;;;;;4994355;28;20215;-73
2022/01/04 02:15:56;;;;;;;5.23;4.67;;;8.30;99.90;;;;;;4974903;28;20590;-72
2022/01/04 02:18:23;;;;;;;5.10;3.50;;;8.40;99.90;;;;;;4990930;28;20202;-72
2022/01/04 02:20:52;;;;;;;5.70;3.90;;;8.30;99.90;;;;;;4987827;28;20227;-71
2022/01/04 02:23:19;;;;;;;5.90;3.70;;;8.20;99.90;;;;;;4987776;28;20212;-72
2022/01/04 02:25:47;;;;;;;5.83;3.73;;;8.30;99.90;;;;;;4985980;28;20193;-70
2022/01/04 02:28:18;;;;;;;4.80;3.20;;;8.20;99.90;;;;;;4989393;28;20211;-71
2022/01/04 02:30:45;;;;;;;4.97;3.57;;;8.20;99.90;;;;;;4986767;28;20232;-72
2022/01/04 02:33:12;;;;;;;4.90;3.73;;;8.30;99.90;;;;;;4976472;28;20209;-71
2022/01/04 02:35:40;;;;;;;4.83;3.30;;;8.30;99.90;;;;;;4994839;28;20223;-72
2022/01/04 02:38:10;;;;;;;6.60;3.67;;;8.30;99.90;;;;;;4988465;28;20294;-72
2022/01/04 02:40:37;;;;;;;3.73;3.10;;;8.30;99.90;;;;;;4984376;28;20687;-73
2022/01/04 02:43:04;;;;;;;5.67;3.80;;;8.20;99.90;;;;;;4984950;28;20205;-72
2022/01/04 02:45:34;;;;;;;3.50;3.13;;;8.30;99.90;;;;;;4970986;28;20654;-72
2022/01/04 02:48:01;;;;;;;4.00;3.20;;;8.40;99.90;;;;;;4990463;28;20196;-73
2022/01/04 02:50:29;;;;;;;4.40;3.43;;;8.20;99.90;;;;;;4983428;28;20223;-72
2022/01/04 02:52:56;;;;;;;5.77;3.93;;;8.20;99.90;;;;;;4994273;28;20674;-72
2022/01/04 02:55:25;;;;;;;4.53;3.40;;;8.20;99.90;;;;;;4978403;28;20208;-72
2022/01/04 02:57:52;;;;;;;5.00;3.53;;;8.20;99.90;;;;;;4984408;28;20200;-72
2022/01/04 03:00:20;;;;;;;5.47;3.90;;;8.20;99.90;;;;;;4976600;28;20224;-71
2022/01/04 03:02:50;;;;;;;4.60;3.73;;;8.20;99.90;;;;;;4991724;28;20205;-71
2022/01/04 03:05:18;;;;;;;5.67;4.10;;;8.10;99.90;;;;;;4972898;28;20211;-72
2022/01/04 03:07:45;;;;;;;5.73;4.37;;;8.20;99.90;;;;;;4968124;28;20211;-72
2022/01/04 03:10:12;;;;;;;6.43;4.80;;;8.10;99.90;;;;;;4981610;28;20232;-72
2022/01/04 03:12:43;;;;;;;7.37;4.83;;;8.10;99.90;;;;;;4992212;28;20204;-72
2022/01/04 03:15:11;;;;;;;6.77;4.50;;;8.10;99.90;;;;;;4990473;28;20204;-72
2022/01/04 03:17:38;;;;;;;5.77;4.87;;;8.00;99.90;;;;;;4976035;28;20201;-72
2022/01/04 03:20:07;;;;;;;5.87;4.20;;;8.10;99.90;;;;;;4984105;28;20573;-73
2022/01/04 03:22:34;;;;;;;6.13;4.30;;;8.20;99.90;;;;;;4986243;28;20298;-72
2022/01/04 03:25:02;;;;;;;7.47;5.20;;;8.10;99.90;;;;;;4989903;28;20196;-72
2022/01/04 03:27:29;;;;;;;5.60;4.40;;;8.10;99.90;;;;;;4983306;28;20209;-72
2022/01/04 03:29:58;;;;;;;7.57;4.87;;;8.10;99.90;;;;;;4989236;28;20575;-72
2022/01/04 03:32:26;;;;;;;4.73;4.00;;;8.10;99.90;;;;;;4972598;28;20205;-72
2022/01/04 03:34:53;;;;;;;4.10;3.70;;;8.10;99.90;;;;;;4993106;28;20199;-71
2022/01/04 03:37:20;;;;;;;5.87;4.50;;;8.10;99.90;;;;;;4992755;28;20209;-69
2022/01/04 03:39:47;;;;;;;6.33;4.70;;;8.10;99.90;;;;;;4989655;28;20220;-72
2022/01/04 03:42:15;;;;;;;5.83;4.73;;;8.10;99.90;;;;;;4963726;28;20710;-72
2022/01/04 03:44:42;;;;;;;6.50;5.07;;;8.00;99.90;;;;;;4976451;28;20203;-73
2022/01/04 03:47:11;;;;;;;7.40;5.13;;;8.10;99.90;;;;;;4991806;28;20201;-72
2022/01/04 03:49:38;;;;;;;6.60;4.77;;;8.10;99.90;;;;;;4992568;28;20302;-73
2022/01/04 03:52:06;;;;;;;6.30;4.60;;;8.10;99.90;;;;;;4992433;28;20200;-72
2022/01/04 03:54:33;;;;;;;6.73;5.57;;;8.10;99.90;;;;;;4990400;28;20208;-72
2022/01/04 03:57:01;;;;;;;7.90;5.03;;;8.10;99.90;;;;;;4984902;28;20205;-72
2022/01/04 03:59:28;;;;;;;6.63;5.33;;;8.10;99.90;;;;;;4991553;28;20590;-73
2022/01/04 04:01:55;;;;;;;6.30;5.43;;;8.10;99.90;;;;;;4986393;28;20200;-71
2022/01/04 04:04:25;;;;;;;7.13;5.80;;;8.00;99.90;;;;;;4996632;28;20207;-73
2022/01/04 04:06:52;;;;;;;7.43;5.70;;;8.00;99.90;;;;;;4973229;28;20196;-68
2022/01/04 04:09:20;;;;;;;7.17;4.80;;;8.10;99.90;;;;;;4982573;28;20200;-72
2022/01/04 04:11:47;;;;;;;5.80;4.83;;;8.10;99.90;;;;;;4992036;28;20203;-72
2022/01/04 04:14:15;;;;;;;6.37;5.17;;;8.10;99.90;;;;;;4984899;28;20194;-72
2022/01/04 04:16:42;;;;;;;7.27;5.40;;;8.10;99.90;;;;;;4991205;28;20224;-72
2022/01/04 04:19:09;;;;;;;6.27;5.20;;;8.10;99.90;;;;;;4985162;28;20551;-72
2022/01/04 04:21:38;;;;;;;5.87;5.00;;;8.10;99.90;;;;;;4992989;28;20216;-73
2022/01/04 04:24:06;;;;;;;6.50;4.70;;;8.10;99.90;;;;;;4976702;28;20206;-72
2022/01/04 04:26:33;;;;;;;6.63;4.77;;;8.00;99.90;;;;;;4976015;28;20197;-72
2022/01/04 04:29:01;;;;;;;5.77;5.17;;;8.00;99.90;;;;;;4976755;28;20204;-72
2022/01/04 04:31:28;;;;;;;7.10;5.07;;;8.00;99.90;;;;;;4990148;28;20813;-72
2022/01/04 04:34:10;;;;;;;6.40;5.30;;;8.00;99.90;;;;;;4975936;28;20196;-72
2022/01/04 04:36:38;;;;;;;8.43;5.50;;;8.00;99.90;;;;;;4974127;28;20225;-73
2022/01/04 04:39:06;;;;;;;9.27;5.50;;;8.10;99.90;;;;;;4989184;28;20223;-71
2022/01/04 04:41:33;;;;;;;8.60;6.00;;;8.10;99.90;;;;;;4979505;28;20669;-72
2022/01/04 04:44:01;;;;;;;5.57;4.97;;;8.10;99.90;;;;;;4999176;28;20192;-72
2022/01/04 04:46:28;;;;;;;5.83;5.20;;;8.20;99.90;;;;;;4990174;28;20212;-71
2022/01/04 04:48:55;;;;;;;5.63;4.83;;;8.20;99.90;;;;;;4985259;28;20204;-72
2022/01/04 04:51:23;;;;;;;6.00;4.90;;;8.20;99.90;;;;;;4966657;28;20221;-72
2022/01/04 04:53:51;;;;;;;5.57;4.70;;;8.10;99.90;;;;;;4991399;28;20213;-73
2022/01/04 04:56:19;;;;;;;5.63;4.57;;;8.10;99.90;;;;;;4991768;28;20220;-72
2022/01/04 04:58:46;;;;;;;5.63;4.67;;;8.10;99.90;;;;;;4988637;28;20196;-72
2022/01/04 05:01:13;;;;;;;7.23;4.97;;;8.10;99.90;;;;;;4969426;28;20227;-72
2022/01/04 05:03:41;;;;;;;6.33;5.37;;;8.10;99.90;;;;;;4971969;28;20221;-71
2022/01/04 05:06:08;;;;;;;6.67;5.40;;;8.10;99.90;;;;;;4986505;28;20554;-72
2022/01/04 05:08:35;;;;;;;5.83;5.10;;;8.00;99.90;;;;;;4979444;28;20227;-72
2022/01/04 05:11:06;;;;;;;7.23;5.27;;;7.90;99.90;;;;;;4983233;28;20228;-72
2022/01/04 05:13:33;;;;;;;5.77;5.07;;;8.00;99.90;;;;;;4989284;28;20192;-72
2022/01/04 05:16:01;;;;;;;7.50;5.20;;;8.00;99.90;;;;;;4985149;28;20228;-72
2022/01/04 05:18:28;;;;;;;7.37;5.80;;;8.10;99.90;;;;;;4962103;28;20544;-72
2022/01/04 05:20:56;;;;;;;6.37;5.60;;;8.10;99.90;;;;;;4984474;28;20228;-72
2022/01/04 05:23:23;;;;;;;9.43;6.93;;;7.90;99.90;;;;;;4985302;28;20207;-72
2022/01/04 05:29:40;;;;;;;8.67;6.40;;;8.00;99.90;;;;;;4992643;28;20195;-72
2022/01/04 05:32:08;;;;;;;7.40;5.80;;;8.00;99.90;;;;;;4978264;28;20201;-72
2022/01/04 05:34:35;;;;;;;7.10;5.77;;;8.00;99.90;;;;;;4972786;28;20204;-73
2022/01/04 05:37:03;;;;;;;8.97;6.60;;;8.00;99.90;;;;;;4974133;28;20224;-69
2022/01/04 05:39:30;;;;;;;8.90;6.57;;;8.10;99.90;;;;;;4982792;28;20208;-72
2022/01/04 05:41:58;;;;;;;9.93;6.13;;;8.10;99.90;;;;;;4984278;28;20211;-72
2022/01/04 05:44:25;;;;;;;8.93;6.07;;;8.10;99.90;;;;;;4972243;28;20215;-72
2022/01/04 05:46:54;;;;;;;8.90;6.50;;;8.00;99.90;;;;;;4989423;28;20204;-72
2022/01/04 05:49:21;;;;;;;8.77;5.53;;;8.00;99.90;;;;;;4979242;28;20207;-72
2022/01/04 05:51:48;;;;;;;7.50;5.50;;;8.00;99.90;;;;;;4984360;28;20208;-72
2022/01/04 05:54:16;;;;;;;8.27;6.93;;;7.90;99.90;;;;;;4980626;28;20677;-73
2022/01/04 05:56:43;;;;;;;9.63;6.57;;;7.90;99.90;;;;;;4996428;28;20221;-72
2022/01/04 05:59:24;;;;;;;8.40;6.27;;;7.90;99.90;;;;;;4978549;28;20209;-71
2022/01/04 06:01:52;;;;;;;7.73;6.13;;;8.00;99.90;;;;;;4976430;28;20669;-72
2022/01/04 06:04:20;;;;;;;9.23;6.37;;;7.90;99.90;;;;;;4984874;28;20212;-71
2022/01/04 06:06:48;;;;;;;9.40;6.47;;;8.00;99.90;;;;;;4972413;28;20551;-72
2022/01/04 06:09:21;;;;;;;10.03;6.60;;;8.00;99.90;;;;;;4984152;28;20189;-72
2022/01/04 06:12:01;;;;;;;12.17;6.33;;;8.10;99.90;;;;;;4970675;28;20570;-72
2022/01/04 06:17:14;;;;;;;9.17;6.93;;;8.00;99.90;;;;;;4974520;28;20208;-72
2022/01/04 06:19:43;;;;;;;10.23;7.20;;;8.00;99.90;;;;;;4981053;28;20213;-72
2022/01/04 06:22:18;;;;;;;9.47;6.90;;;8.00;99.90;;;;;;4968188;28;20192;-72
2022/01/04 06:24:45;;;;;;;11.80;6.83;;;8.00;99.90;;;;;;4961618;28;20565;-73
2022/01/04 06:27:13;;;;;;;9.67;7.23;;;8.40;99.90;;;;;;4980932;28;20197;-74
2022/01/04 06:29:41;;;;;;;11.17;8.60;;;8.10;99.90;;;;;;4963517;28;20220;-74
2022/01/04 06:32:10;;;;;;;9.57;7.10;;;8.20;99.90;;;;;;4982362;28;20189;-72
2022/01/04 06:34:38;;;;;;;9.83;7.73;;;8.20;99.90;;;;;;4973805;28;20201;-71
2022/01/04 06:37:45;;;;;;;12.13;7.90;;;8.00;99.90;;;;;;4985887;28;20565;-72
2022/01/04 06:40:14;;;;;;;11.97;8.10;;;8.00;99.90;;;;;;4988365;28;20216;-73
2022/01/04 06:42:58;;;;;;;12.53;8.60;;;8.00;99.90;;;;;;4986020;28;20662;-72
2022/01/04 06:45:29;;;;;;;10.47;8.33;;;8.00;99.90;;;;;;4977024;28;20608;-72
2022/01/04 06:47:57;;;;;;;9.27;7.03;;;8.00;99.90;;;;;;4992329;28;20180;-72
2022/01/04 06:50:24;;;;;;;11.73;8.77;;;7.90;99.90;;;;;;4992612;28;20223;-72
2022/01/04 06:52:56;;;;;;;11.13;8.17;;;8.00;99.90;;;;;;4991588;28;20215;-71
2022/01/04 06:55:25;;;;;;;11.33;8.00;;;8.10;99.90;;;;;;4994669;28;20687;-72
2022/01/04 06:57:52;;;;;;;10.53;8.37;;;8.00;99.90;;;;;;4970199;28;20221;-71
2022/01/04 07:00:51;;;;;;;11.97;8.83;;;8.00;99.90;;;;;;4991373;28;20212;-72
2022/01/04 07:03:26;;;;;;;10.67;8.53;;;8.00;99.90;;;;;;4977152;28;20204;-72
2022/01/04 07:06:00;;;;;;;13.03;8.43;;;8.00;99.90;;;;;;4981490;28;20665;-73
2022/01/04 07:08:27;;;;;;;11.67;8.37;;;8.00;99.90;;;;;;4983553;28;20708;-72
2022/01/04 07:10:56;;;;;;;11.43;8.27;;;8.00;99.90;;;;;;4986222;28;20234;-72
2022/01/04 07:13:23;;;;;;;12.73;8.57;;;8.10;99.90;;;;;;4977041;28;20207;-73
2022/01/04 07:15:51;;;;;;;11.73;8.10;;;8.00;99.90;;;;;;4995085;28;20197;-72
2022/01/04 07:18:37;;;;;;;11.00;8.43;;;8.00;99.90;;;;;;4988989;28;20235;-72
2022/01/04 07:21:04;;;;;;;14.33;9.30;;;8.00;99.90;;;;;;4988544;28;20229;-72
2022/01/04 07:23:33;;;;;;;11.87;8.37;;;8.00;99.90;;;;;;4991191;28;20659;-72
2022/01/04 07:26:01;;;;;;;13.17;9.47;;;8.00;99.90;;;;;;4990585;28;20205;-72
2022/01/04 07:28:36;;;;;;;13.27;8.70;;;8.00;99.90;;;;;;4984746;28;20188;-71
2022/01/04 07:31:15;;;;;;;10.77;8.07;;;8.10;99.90;;;;;;4966260;28;20223;-73
2022/01/04 07:33:45;;;;;;;14.53;9.57;;;8.00;99.90;;;;;;4990527;28;20189;-75
2022/01/04 07:36:13;;;;;;;12.80;8.60;;;7.90;99.90;;;;;;4980411;28;20711;-74
2022/01/04 07:38:41;;;;;;;12.03;8.80;;;8.00;99.90;;;;;;4997556;28;20219;-74
2022/01/04 07:41:10;;;;;;;11.87;9.03;;;8.00;99.90;;;;;;4990449;28;20225;-74
2022/01/04 07:43:37;;;;;;;13.87;9.37;;;8.00;99.90;;;;;;4969284;28;20204;-75
2022/01/04 07:46:05;;;;;;;13.57;10.13;;;8.00;99.90;;;;;;4992522;28;20204;-74
2022/01/04 07:48:32;;;;;;;14.73;9.57;;;8.00;99.90;;;;;;4963497;28;20193;-74
2022/01/04 07:51:02;;;;;;;14.73;9.60;;;7.90;99.90;;;;;;4985519;28;20225;-74
2022/01/04 07:53:30;;;;;;;14.37;10.40;;;8.00;99.90;;;;;;4992636;28;20199;-74
2022/01/04 07:55:58;;;;;;;15.20;10.30;;;8.00;99.90;;;;;;4986517;28;20201;-74
2022/01/04 07:58:38;;;;;;;12.47;9.53;;;7.90;99.90;;;;;;4975777;28;20235;-74
2022/01/04 08:01:05;;;;;;;13.00;8.97;;;8.00;99.90;;;;;;4988913;28;20681;-74
2022/01/04 08:03:38;;;;;;;13.83;10.00;;;7.90;99.90;;;;;;5005074;28;20194;-73
2022/01/04 08:06:06;;;;;;;14.27;10.17;;;7.90;99.90;;;;;;4978313;28;20203;-71
2022/01/04 08:08:33;;;;;;;14.10;9.13;;;7.90;99.90;;;;;;4960851;28;20209;-72
2022/01/04 08:11:00;;;;;;;12.93;9.77;;;8.00;99.90;;;;;;4988328;28;20243;-71
2022/01/04 08:13:30;;;;;;;13.33;10.27;;;7.90;99.90;;;;;;4987560;28;20204;-72
2022/01/04 08:15:58;;;;;;;14.23;10.60;;;7.90;99.90;;;;;;4973430;28;20205;-72
2022/01/04 08:18:26;;;;;;;14.63;10.77;;;7.90;99.90;;;;;;4973438;28;20730;-72
2022/01/04 08:20:57;;;;;;;14.63;9.33;;;8.00;99.90;;;;;;4975097;28;20217;-72
2022/01/04 08:23:25;;;;;;;16.47;10.53;;;7.90;99.90;;;;;;4976490;28;20198;-72
2022/01/04 08:25:53;;;;;;;15.73;10.50;;;8.00;99.90;;;;;;4994184;28;20684;-72
2022/01/04 08:28:20;;;;;;;16.80;11.33;;;8.00;99.90;;;;;;4976224;28;20207;-72
2022/01/04 08:30:48;;;;;;;17.07;11.27;;;8.00;99.90;;;;;;4976812;28;20239;-72
2022/01/04 08:33:16;;;;;;;15.80;11.13;;;8.00;99.90;;;;;;4992706;28;20212;-72
2022/01/04 08:39:14;;;;;;;17.60;11.30;;;8.00;99.90;;;;;;4993749;28;20215;-71
2022/01/04 08:41:42;;;;;;;15.37;10.70;;;8.00;99.90;;;;;;4965039;28;20698;-71
2022/01/04 08:44:10;;;;;;;14.80;10.90;;;8.10;99.90;;;;;;4992761;28;20212;-72
2022/01/04 08:46:37;;;;;;;16.50;12.07;;;8.10;99.90;;;;;;4990547;28;20197;-72
2022/01/04 08:49:30;;;;;;;16.30;11.63;;;8.00;99.90;;;;;;4967699;28;20686;-72
2022/01/04 08:52:01;;;;;;;14.57;10.67;;;8.00;99.90;;;;;;4976279;28;20199;-72
2022/01/04 08:54:32;;;;;;;16.60;10.87;;;8.00;99.90;;;;;;4986793;28;20207;-72
2022/01/04 08:57:00;;;;;;;17.97;12.17;;;7.90;99.90;;;;;;4991121;28;20194;-72
2022/01/04 08:59:28;;;;;;;15.43;10.77;;;8.00;99.90;;;;;;4977959;28;20211;-72
2022/01/04 09:01:55;;;;;;;15.47;10.43;;;7.90;99.90;;;;;;4982223;28;20196;-72
2022/01/04 09:04:23;;;;;;;16.77;10.53;;;7.90;99.90;;;;;;4987814;28;20197;-73
2022/01/04 09:06:51;;;;;;;17.30;11.30;;;7.90;99.90;;;;;;4989264;28;20565;-72
2022/01/04 09:09:19;;;;;;;16.27;10.87;;;7.80;99.90;;;;;;4981211;28;20226;-72
2022/01/04 09:11:46;;;;;;;16.83;11.10;;;7.90;99.90;;;;;;4989657;28;20200;-72
2022/01/04 09:14:24;;;;;;;19.23;12.17;;;7.80;99.90;;;;;;4979718;28;20199;-72
2022/01/04 09:19:37;;;;;;;16.23;11.50;;;7.80;99.90;;;;;;4972405;28;20220;-72
2022/01/04 09:22:06;;;;;;;17.50;11.60;;;7.80;99.90;;;;;;4993560;28;20192;-73
2022/01/04 09:24:34;;;;;;;18.50;11.60;;;7.80;99.90;;;;;;4986144;28;20192;-72
2022/01/04 09:27:05;;;;;;;16.50;11.17;;;7.80;99.90;;;;;;4989786;28;20196;-72
2022/01/04 09:29:33;;;;;;;14.80;10.07;;;7.80;99.90;;;;;;4972514;28;20196;-72
2022/01/04 09:32:02;;;;;;;14.07;10.07;;;7.80;99.90;;;;;;4982284;28;20210;-72
2022/01/04 09:34:29;;;;;;;15.57;10.27;;;7.80;99.90;;;;;;4983057;28;20218;-72
2022/01/04 09:36:57;;;;;;;13.70;10.03;;;7.80;99.90;;;;;;4976283;28;20211;-72
2022/01/04 09:39:26;;;;;;;16.23;10.20;;;7.80;99.90;;;;;;4980650;28;20227;-72
2022/01/04 09:41:55;;;;;;;15.60;9.80;;;7.80;99.90;;;;;;4977276;28;20205;-72
2022/01/04 09:44:25;;;;;;;13.13;9.23;;;7.80;99.90;;;;;;4966910;28;20200;-72
2022/01/04 09:46:52;;;;;;;17.80;10.50;;;7.80;99.90;;;;;;4986991;28;20207;-73
2022/01/04 09:49:20;;;;;;;14.70;10.00;;;7.80;99.90;;;;;;4985486;28;20666;-72
2022/01/04 09:51:49;;;;;;;13.50;9.63;;;7.90;99.90;;;;;;4975310;28;20200;-72
2022/01/04 09:54:21;;;;;;;15.53;9.03;;;7.90;99.90;;;;;;4981708;28;20223;-72
2022/01/04 09:56:50;;;;;;;13.30;9.93;;;7.80;99.90;;;;;;4967522;28;20211;-72
2022/01/04 09:59:19;;;;;;;16.70;10.27;;;7.90;99.90;;;;;;4979065;28;20212;-72
2022/01/04 10:01:52;;;;;;;14.77;9.43;;;7.80;99.90;;;;;;4977878;28;20208;-72
2022/01/04 10:04:23;;;;;;;11.77;8.63;;;8.00;99.90;;;;;;4990195;28;20682;-72
2022/01/04 10:06:58;;;;;;;12.63;8.80;;;8.00;99.90;;;;;;4983617;28;20193;-72
2022/01/04 10:09:36;;;;;;;13.00;9.13;;;7.90;99.90;;;;;;4987835;28;20204;-72
2022/01/04 10:12:07;;;;;;;11.20;8.23;;;7.90;99.90;;;;;;4979722;28;20204;-72
2022/01/04 10:14:45;;;;;;;13.57;9.13;;;7.80;99.90;;;;;;4975375;28;20231;-73
2022/01/04 10:17:14;;;;;;;14.53;9.83;;;7.90;99.90;;;;;;4976073;28;20200;-72
2022/01/04 10:19:44;;;;;;;14.73;9.60;;;7.90;99.90;;;;;;4987307;28;20239;-73
2022/01/04 10:22:20;;;;;;;14.23;9.90;;;7.90;99.90;;;;;;4986855;28;20201;-72
2022/01/04 10:24:48;;;;;;;13.70;9.60;;;7.80;99.90;;;;;;4988291;28;20200;-72
2022/01/04 10:27:29;;;;;;;12.93;9.13;;;7.90;99.90;;;;;;4988983;28;20204;-72
2022/01/04 10:30:16;;;;;;;13.70;9.30;;;7.90;99.90;;;;;;4992104;28;20216;-72
2022/01/04 10:32:49;;;;;;;13.63;8.97;;;7.90;99.90;;;;;;4984942;28;20191;-72
2022/01/04 10:35:28;;;;;;;11.20;8.40;;;7.90;99.90;;;;;;4994304;28;20214;-72
2022/01/04 10:38:12;;;;;;;13.30;9.53;;;7.90;99.90;;;;;;4986715;28;20192;-72
2022/01/04 10:40:40;;;;;;;11.80;8.83;;;7.90;99.90;;;;;;4973701;28;20224;-72
2022/01/04 10:43:11;;;;;;;10.47;8.60;;;7.90;99.90;;;;;;4988640;28;20208;-72
2022/01/04 10:45:39;;;;;;;13.43;8.93;;;7.90;99.90;;;;;;4992783;28;20211;-73
2022/01/04 10:48:17;;;;;;;13.23;8.70;;;7.90;99.90;;;;;;5008373;28;20558;-72
2022/01/04 10:50:47;;;;;;;12.67;9.33;;;7.90;99.90;;;;;;4976424;28;20223;-72
2022/01/04 10:53:18;;;;;;;11.63;9.23;;;7.80;99.90;;;;;;4975827;28;20201;-72
2022/01/04 10:55:46;;;;;;;13.37;9.20;;;7.90;99.90;;;;;;4982788;28;20563;-72
2022/01/04 10:58:30;;;;;;;16.10;11.00;;;7.80;99.90;;;;;;4987535;28;20208;-72
2022/01/04 11:01:13;;;;;;;14.47;10.30;;;7.80;99.90;;;;;;4991278;28;20220;-72
2022/01/04 11:04:00;;;;;;;15.07;10.43;;;7.90;99.90;;;;;;4989836;28;20212;-72
2022/01/04 11:06:43;;;;;;;15.87;12.27;;;7.90;99.90;;;;;;4982173;28;20202;-72
2022/01/04 11:09:19;;;;;;;17.40;13.57;;;7.90;99.90;;;;;;4975681;28;20214;-72
2022/01/04 11:11:46;;;;;;;19.07;11.63;;;7.90;99.90;;;;;;4994574;28;20222;-72
2022/01/04 11:14:15;;;;;;;17.63;12.43;;;7.90;99.90;;;;;;4995298;28;20207;-72
2022/01/04 11:16:50;;;;;;;17.33;12.37;;;7.90;99.90;;;;;;4977477;28;20204;-73
2022/01/04 11:19:20;;;;;;;16.30;12.67;;;7.90;99.90;;;;;;4980571;28;20571;-72
2022/01/04 11:21:50;;;;;;;19.87;13.90;;;8.00;99.90;;;;;;4989507;28;20203;-72
2022/01/04 11:27:27;;;;;;;23.17;15.43;;;7.90;99.90;;;;;;4986208;28;20200;-72
2022/01/04 11:29:59;;;;;;;22.53;15.63;;;8.20;99.90;;;;;;4977157;28;20593;-72
2022/01/04 11:32:52;;;;;;;19.30;15.20;;;8.10;99.90;;;;;;4988784;28;20218;-72
2022/01/04 11:35:22;;;;;;;21.67;16.63;;;8.00;99.90;;;;;;4987695;28;20200;-72
2022/01/04 11:37:54;;;;;;;25.83;17.50;;;8.00;99.90;;;;;;4984681;28;20204;-72
2022/01/04 11:41:13;;;;;;;20.17;16.07;;;8.00;99.90;;;;;;4991398;28;20722;-72
2022/01/04 11:43:40;;;;;;;23.70;17.67;;;8.00;99.90;;;;;;4974035;28;20204;-72
2022/01/04 11:46:09;;;;;;;26.10;17.93;;;8.00;99.90;;;;;;4988429;28;20192;-72
2022/01/04 11:48:39;;;;;;;28.73;20.40;;;7.90;99.90;;;;;;4975108;28;20199;-72
2022/01/04 11:51:43;;;;;;;27.00;19.67;;;8.00;99.90;;;;;;4974406;28;20569;-72
2022/01/04 11:54:21;;;;;;;27.23;19.40;;;7.90;99.90;;;;;;4971943;28;20219;-72
2022/01/04 11:56:52;;;;;;;28.40;19.67;;;7.90;99.90;;;;;;4989605;28;20207;-72
2022/01/04 11:59:22;;;;;;;32.50;21.03;;;8.00;99.90;;;;;;4983355;28;20232;-72
2022/01/04 12:01:51;;;;;;;26.13;19.13;;;8.00;99.90;;;;;;4976469;28;20688;-72
2022/01/04 12:04:50;;;;;;;27.50;18.73;;;8.00;99.90;;;;;;4990877;28;20584;-72
2022/01/04 12:07:44;;;;;;;22.47;16.93;;;8.00;99.90;;;;;;4984000;28;20207;-72
2022/01/04 12:10:47;;;;;;;26.87;19.90;;;7.90;99.90;;;;;;4991890;28;20218;-73
2022/01/04 12:13:16;;;;;;;25.97;19.70;;;8.00;99.90;;;;;;4969660;28;20207;-72
2022/01/04 12:16:07;;;;;;;27.57;19.57;;;8.00;99.90;;;;;;4988534;28;20567;-73
2022/01/04 12:18:58;;;;;;;24.30;19.07;;;8.00;99.90;;;;;;4984936;28;20565;-71
2022/01/04 12:21:40;;;;;;;27.33;19.93;;;8.00;99.90;;;;;;4975383;28;20219;-74
2022/01/04 12:24:10;;;;;;;28.17;20.40;;;8.00;99.90;;;;;;4984337;28;20208;-72
2022/01/04 12:26:39;;;;;;;27.27;19.50;;;8.00;99.90;;;;;;4987201;28;20201;-73
2022/01/04 12:29:31;;;;;;;29.00;20.73;;;8.00;99.90;;;;;;4986379;28;20195;-73
2022/01/04 12:32:02;;;;;;;28.67;20.37;;;8.10;99.90;;;;;;4987033;28;20204;-73
2022/01/04 12:34:57;;;;;;;33.33;21.40;;;8.00;99.90;;;;;;4986783;28;20207;-73
2022/01/04 12:37:26;;;;;;;28.93;19.90;;;8.10;99.90;;;;;;4985455;28;20657;-73
2022/01/04 12:39:57;;;;;;;29.33;19.20;;;8.10;99.90;;;;;;4990547;28;20533;-73
2022/01/04 12:42:25;;;;;;;29.97;19.67;;;8.10;99.90;;;;;;4992380;28;20207;-74
2022/01/04 12:44:56;;;;;;;26.07;18.67;;;8.10;99.90;;;;;;4981851;28;20205;-73
2022/01/04 12:47:24;;;;;;;31.23;21.17;;;8.10;99.90;;;;;;4982567;28;20207;-74
2022/01/04 12:49:52;;;;;;;29.40;19.87;;;8.10;99.90;;;;;;4982235;28;20213;-73
2022/01/04 12:52:21;;;;;;;23.00;17.43;;;8.10;99.90;;;;;;4975311;28;20226;-73
2022/01/04 12:54:50;;;;;;;25.87;19.43;;;8.10;99.90;;;;;;4976440;28;20209;-74
2022/01/04 12:57:20;;;;;;;28.20;18.97;;;8.10;99.90;;;;;;4975247;28;20196;-74
2022/01/04 12:59:49;;;;;;;27.93;19.23;;;8.10;99.90;;;;;;4976422;28;20232;-73
2022/01/04 13:02:22;;;;;;;27.67;19.07;;;8.10;99.90;;;;;;4974363;28;20204;-73
2022/01/04 13:04:52;;;;;;;25.93;18.07;;;8.10;99.90;;;;;;4987830;28;20205;-73
2022/01/04 13:07:27;;;;;;;28.20;18.67;;;8.10;99.90;;;;;;4975991;28;20207;-74
2022/01/04 13:10:00;;;;;;;29.00;18.13;;;8.20;99.90;;;;;;4977933;28;20222;-73
2022/01/04 13:12:31;;;;;;;26.40;16.67;;;8.20;99.90;;;;;;4987514;28;20665;-74
2022/01/04 13:15:01;;;;;;;25.20;17.73;;;8.20;99.90;;;;;;4989334;28;20204;-74
2022/01/04 13:18:04;;;;;;;30.83;18.87;;;8.20;99.90;;;;;;4974367;28;20558;-73
2022/01/04 13:20:34;;;;;;;29.77;18.57;;;8.20;99.90;;;;;;4987657;28;20254;-73
2022/01/04 13:23:07;;;;;;;29.73;17.30;;;8.20;99.90;;;;;;4985133;28;20652;-74
2022/01/04 13:25:36;;;;;;;28.60;18.73;;;8.20;99.90;;;;;;4989520;28;20196;-72